Time;durP1;ratioP1;P1;durP2;ratioP2;P2;SDS_P1;SDS_P2;PMS_P1;PMS_P2;Temp;Humidity;BMP_temperature;BMP_pressure;BME280_temperature;BME280_humidity;BME280_pressure;Samples;Min_cycle;Max_cycle;Signal;HPM_P1;HPM_P2
2023/01/07 00:01:41;;;;;;;1.67;0.88;;;11.30;99.90;;;;;;6200480;28;20500;-78
2023/01/07 00:04:44;;;;;;;1.17;1.05;;;11.30;99.90;;;;;;6200102;28;20512;-78
2023/01/07 00:07:46;;;;;;;1.33;1.23;;;11.30;99.90;;;;;;6199551;28;20139;-77
2023/01/07 00:10:47;;;;;;;1.20;0.90;;;11.30;99.90;;;;;;6199947;28;20061;-78
2023/01/07 00:13:51;;;;;;;1.75;1.30;;;11.30;99.90;;;;;;6200673;28;20058;-78
2023/01/07 00:16:52;;;;;;;3.15;1.30;;;11.30;99.90;;;;;;6195803;28;20035;-79
2023/01/07 00:19:55;;;;;;;1.88;1.33;;;11.30;99.90;;;;;;6199777;28;20050;-78
2023/01/07 00:22:57;;;;;;;1.20;1.10;;;11.30;99.90;;;;;;6199804;28;20044;-78
2023/01/07 00:26:01;;;;;;;3.67;1.85;;;11.40;99.90;;;;;;6200024;28;20189;-79
2023/01/07 00:29:04;;;;;;;1.40;1.30;;;11.30;99.90;;;;;;6199437;28;20057;-78
2023/01/07 00:32:06;;;;;;;1.25;1.08;;;11.30;99.90;;;;;;6199640;28;20058;-78
2023/01/07 00:35:22;;;;;;;1.98;1.20;;;11.20;99.90;;;;;;6199512;28;20053;-78
2023/01/07 00:38:23;;;;;;;1.17;1.00;;;11.30;99.90;;;;;;6199785;28;20174;-78
2023/01/07 00:41:25;;;;;;;1.20;1.10;;;11.20;99.90;;;;;;6199127;28;20050;-78
2023/01/07 00:44:27;;;;;;;1.50;1.10;;;11.30;99.90;;;;;;6199425;28;20526;-79
2023/01/07 00:47:29;;;;;;;1.35;0.90;;;11.20;99.90;;;;;;6198625;28;20046;-77
2023/01/07 00:50:34;;;;;;;1.50;1.23;;;11.20;99.90;;;;;;6199529;28;20050;-78
2023/01/07 00:53:36;;;;;;;2.60;1.27;;;11.20;99.90;;;;;;6198052;28;20053;-78
2023/01/07 00:56:38;;;;;;;1.27;1.15;;;11.20;99.90;;;;;;6199060;28;20062;-78
2023/01/07 00:59:39;;;;;;;1.33;1.13;;;11.20;99.90;;;;;;6198413;28;20054;-78
2023/01/07 01:02:42;;;;;;;1.33;0.90;;;11.20;99.90;;;;;;6199249;28;20062;-78
2023/01/07 01:05:45;;;;;;;6.38;1.70;;;11.20;99.90;;;;;;6184100;28;20054;-78
2023/01/07 01:08:47;;;;;;;1.90;1.25;;;11.20;99.90;;;;;;6173996;28;20057;-78
2023/01/07 01:11:49;;;;;;;2.88;1.15;;;11.20;99.90;;;;;;6174466;28;20046;-79
2023/01/07 01:14:50;;;;;;;6.63;1.27;;;11.20;99.90;;;;;;6174418;28;20061;-78
2023/01/07 01:17:53;;;;;;;1.95;1.15;;;11.20;99.90;;;;;;6174629;28;20412;-77
2023/01/07 01:20:56;;;;;;;1.80;0.95;;;11.20;99.90;;;;;;6173901;28;20512;-78
2023/01/07 01:23:57;;;;;;;1.17;1.08;;;11.20;99.90;;;;;;6174289;28;20523;-78
2023/01/07 01:26:59;;;;;;;2.85;1.00;;;11.20;99.90;;;;;;6182320;28;20053;-78
2023/01/07 01:30:01;;;;;;;1.65;1.15;;;11.10;99.90;;;;;;6198393;28;20058;-77
2023/01/07 01:33:03;;;;;;;2.75;1.55;;;11.10;99.90;;;;;;6197622;28;20542;-78
2023/01/07 01:36:09;;;;;;;3.13;1.73;;;11.00;99.90;;;;;;6197821;28;20519;-78
2023/01/07 01:39:10;;;;;;;1.25;1.10;;;11.10;99.90;;;;;;6193994;28;20046;-77
2023/01/07 01:42:14;;;;;;;1.20;1.00;;;11.10;99.90;;;;;;6175044;28;20076;-79
2023/01/07 01:45:16;;;;;;;1.65;1.52;;;11.10;99.90;;;;;;6173591;28;20047;-77
2023/01/07 01:48:20;;;;;;;2.20;1.20;;;11.10;99.90;;;;;;6173381;28;20051;-78
2023/01/07 01:51:26;;;;;;;2.60;1.70;;;11.10;99.90;;;;;;6173410;28;20058;-78
2023/01/07 01:54:29;;;;;;;2.58;1.60;;;11.00;99.90;;;;;;6174097;28;20061;-78
2023/01/07 01:57:33;;;;;;;2.58;1.63;;;11.10;99.90;;;;;;6173269;28;20452;-77
2023/01/07 02:00:36;;;;;;;5.20;1.05;;;11.00;99.90;;;;;;6173615;28;20054;-78
2023/01/07 02:03:38;;;;;;;2.65;1.38;;;11.00;99.90;;;;;;6173777;28;20050;-78
2023/01/07 02:06:49;;;;;;;2.42;1.50;;;11.00;99.90;;;;;;6173453;28;20047;-78
2023/01/07 02:09:58;;;;;;;1.75;1.40;;;11.00;99.90;;;;;;6173148;28;20457;-78
2023/01/07 02:13:24;;;;;;;1.95;1.20;;;11.00;99.90;;;;;;6179709;28;20436;-78
2023/01/07 02:16:35;;;;;;;1.02;0.93;;;10.90;99.90;;;;;;6197702;28;20728;-78
2023/01/07 02:20:25;;;;;;;2.95;1.00;;;10.90;99.90;;;;;;6197182;28;20548;-77
2023/01/07 02:24:00;;;;;;;1.73;1.40;;;10.80;99.90;;;;;;6197202;28;20061;-78
2023/01/07 02:27:31;;;;;;;1.95;1.23;;;10.70;99.90;;;;;;6196820;28;20438;-78
2023/01/07 02:30:50;;;;;;;2.13;1.38;;;10.70;99.90;;;;;;6196982;28;20054;-78
2023/01/07 02:34:00;;;;;;;1.48;1.27;;;10.70;99.90;;;;;;6197324;28;20431;-78
2023/01/07 02:37:11;;;;;;;2.08;1.20;;;10.60;99.90;;;;;;6196878;28;20062;-79
2023/01/07 02:40:22;;;;;;;3.28;1.20;;;10.60;99.90;;;;;;6196578;28;20054;-78
2023/01/07 02:43:32;;;;;;;3.58;1.85;;;10.60;99.90;;;;;;6196934;28;20531;-78
2023/01/07 02:46:41;;;;;;;4.75;1.50;;;10.60;99.90;;;;;;6196803;28;20184;-78
2023/01/07 02:49:47;;;;;;;1.58;1.48;;;10.60;99.90;;;;;;6198582;28;20050;-78
2023/01/07 02:52:48;;;;;;;1.67;1.40;;;10.60;99.90;;;;;;6200287;28;20054;-78
2023/01/07 02:56:04;;;;;;;2.17;1.40;;;10.50;99.90;;;;;;6200331;28;20043;-78
2023/01/07 02:59:34;;;;;;;5.47;2.05;;;10.50;99.90;;;;;;6200242;28;20054;-78
2023/01/07 03:03:14;;;;;;;3.15;1.40;;;10.50;99.90;;;;;;6201392;28;20051;-77
2023/01/07 03:06:34;;;;;;;4.00;1.10;;;10.50;99.90;;;;;;6196397;28;20401;-77
2023/01/07 03:09:43;;;;;;;5.90;3.85;;;10.50;99.90;;;;;;6198544;28;20054;-77
2023/01/07 03:12:49;;;;;;;5.18;2.95;;;10.50;99.90;;;;;;6198195;28;20055;-77
2023/01/07 03:15:55;;;;;;;2.55;1.40;;;10.40;99.90;;;;;;6198005;28;20054;-78
2023/01/07 03:19:03;;;;;;;2.75;1.48;;;10.40;99.90;;;;;;6201027;28;20528;-78
2023/01/07 03:22:08;;;;;;;1.60;1.08;;;10.40;99.90;;;;;;6202140;28;20070;-77
2023/01/07 03:25:13;;;;;;;2.50;1.23;;;10.40;99.90;;;;;;6200993;28;20073;-77
2023/01/07 03:28:18;;;;;;;1.63;1.33;;;10.30;99.90;;;;;;6201486;28;20050;-77
2023/01/07 03:31:22;;;;;;;1.52;1.10;;;10.30;99.90;;;;;;6201312;28;20121;-77
2023/01/07 03:34:26;;;;;;;2.13;1.90;;;10.30;99.90;;;;;;6202019;28;20061;-77
2023/01/07 03:37:30;;;;;;;2.83;1.20;;;10.20;99.90;;;;;;6198952;28;20042;-77
2023/01/07 03:40:32;;;;;;;1.17;1.08;;;10.20;99.90;;;;;;6199428;28;20081;-77
2023/01/07 03:43:33;;;;;;;2.35;0.93;;;10.30;99.90;;;;;;6199248;28;20053;-78
2023/01/07 03:46:36;;;;;;;3.35;1.45;;;10.30;99.90;;;;;;6199312;28;20050;-77
2023/01/07 03:49:38;;;;;;;3.72;1.02;;;10.30;99.90;;;;;;6181578;28;20057;-78
2023/01/07 03:52:41;;;;;;;2.65;1.15;;;10.20;99.90;;;;;;6175670;28;20057;-76
2023/01/07 03:55:42;;;;;;;4.25;1.30;;;10.20;99.90;;;;;;6177243;28;20051;-78
2023/01/07 03:58:44;;;;;;;1.50;1.33;;;10.20;99.90;;;;;;6174690;28;20047;-78
2023/01/07 04:01:46;;;;;;;1.70;1.35;;;10.10;99.90;;;;;;6177952;28;20500;-78
2023/01/07 04:04:47;;;;;;;1.20;0.68;;;10.10;99.90;;;;;;6180374;28;20066;-79
2023/01/07 04:07:50;;;;;;;1.88;0.93;;;10.10;99.90;;;;;;6181165;28;20053;-79
2023/01/07 04:10:52;;;;;;;1.73;1.33;;;10.10;99.90;;;;;;6144408;28;1032605;-78
2023/01/07 04:13:55;;;;;;;2.22;1.35;;;10.10;99.90;;;;;;6181135;28;20055;-78
2023/01/07 04:16:57;;;;;;;1.33;1.23;;;10.00;99.90;;;;;;6179854;28;20082;-78
2023/01/07 04:19:59;;;;;;;2.72;1.00;;;10.00;99.90;;;;;;6179842;28;20058;-78
2023/01/07 04:23:02;;;;;;;2.63;1.15;;;10.00;99.90;;;;;;6178770;28;20114;-78
2023/01/07 04:26:04;;;;;;;1.30;0.98;;;10.00;99.90;;;;;;6176485;28;20138;-77
2023/01/07 04:29:06;;;;;;;2.00;1.00;;;10.00;99.90;;;;;;6175176;28;20047;-78
2023/01/07 04:32:07;;;;;;;1.65;1.30;;;10.00;99.90;;;;;;6175525;28;20046;-78
2023/01/07 04:35:09;;;;;;;1.77;1.35;;;10.00;99.90;;;;;;6175294;28;20039;-79
2023/01/07 04:38:12;;;;;;;1.08;0.90;;;9.90;99.90;;;;;;6175812;28;20077;-78
2023/01/07 04:41:14;;;;;;;1.48;1.13;;;9.90;99.90;;;;;;6175218;28;20047;-78
2023/01/07 04:44:16;;;;;;;3.20;1.48;;;9.90;99.90;;;;;;6175143;28;20512;-78
2023/01/07 04:47:18;;;;;;;2.33;1.13;;;9.90;99.90;;;;;;6175010;28;20042;-80
2023/01/07 04:50:19;;;;;;;1.27;0.70;;;9.90;99.90;;;;;;6175386;28;20062;-78
2023/01/07 04:53:23;;;;;;;1.35;1.23;;;9.90;99.90;;;;;;6177605;28;20047;-78
2023/01/07 04:56:24;;;;;;;0.98;0.70;;;10.00;99.90;;;;;;6177785;28;20051;-78
2023/01/07 04:59:26;;;;;;;1.33;0.93;;;10.00;99.90;;;;;;6175259;28;20050;-77
2023/01/07 05:02:29;;;;;;;1.10;1.00;;;10.00;99.90;;;;;;6178520;28;20066;-78
2023/01/07 05:05:31;;;;;;;1.23;1.13;;;10.10;99.90;;;;;;6178420;28;20504;-78
2023/01/07 05:08:34;;;;;;;2.60;1.05;;;10.10;99.90;;;;;;6178430;28;20042;-78
2023/01/07 05:11:35;;;;;;;2.75;1.08;;;10.20;99.90;;;;;;6179261;28;20062;-78
2023/01/07 05:14:37;;;;;;;0.95;0.90;;;10.20;99.90;;;;;;6179768;28;20050;-77
2023/01/07 05:17:39;;;;;;;3.55;1.10;;;10.20;99.90;;;;;;6180359;28;20047;-78
2023/01/07 05:20:41;;;;;;;1.10;0.93;;;10.20;99.90;;;;;;6179877;28;20047;-78
2023/01/07 05:23:44;;;;;;;1.60;1.13;;;10.20;99.90;;;;;;6179082;28;20727;-78
2023/01/07 05:26:45;;;;;;;1.17;0.95;;;10.20;99.90;;;;;;6178125;28;20051;-78
2023/01/07 05:29:47;;;;;;;0.73;0.73;;;10.20;99.90;;;;;;6178119;28;20060;-78
2023/01/07 05:32:49;;;;;;;0.60;0.52;;;10.30;99.90;;;;;;6177696;28;20059;-77
2023/01/07 05:35:50;;;;;;;0.70;0.68;;;10.30;99.90;;;;;;6177781;28;20505;-78
2023/01/07 05:38:54;;;;;;;1.23;0.85;;;10.30;99.90;;;;;;6179693;28;20051;-77
2023/01/07 05:41:56;;;;;;;1.42;1.02;;;10.30;99.90;;;;;;6202374;28;20050;-77
2023/01/07 05:44:57;;;;;;;0.80;0.80;;;10.30;99.90;;;;;;6201953;28;20675;-78
2023/01/07 05:47:59;;;;;;;1.70;1.60;;;10.30;99.90;;;;;;6202467;28;20504;-78
2023/01/07 05:51:01;;;;;;;1.30;1.20;;;10.30;99.90;;;;;;6202301;28;20046;-78
2023/01/07 05:54:04;;;;;;;1.15;0.80;;;10.30;99.90;;;;;;6203071;28;20076;-78
2023/01/07 05:57:05;;;;;;;2.40;0.88;;;10.30;99.90;;;;;;6202474;28;20057;-78
2023/01/07 06:00:09;;;;;;;1.17;1.02;;;10.30;99.90;;;;;;6201557;28;20046;-78
2023/01/07 06:03:11;;;;;;;1.05;0.95;;;10.30;99.90;;;;;;6179855;28;20501;-78
2023/01/07 06:06:12;;;;;;;0.40;0.40;;;10.30;99.90;;;;;;6177691;28;20050;-77
2023/01/07 06:09:16;;;;;;;1.55;1.10;;;10.30;99.90;;;;;;6176735;28;20046;-78
2023/01/07 06:12:17;;;;;;;1.77;1.20;;;10.30;99.90;;;;;;6177118;28;20043;-78
2023/01/07 06:15:19;;;;;;;1.75;0.85;;;10.30;99.90;;;;;;6177124;28;20054;-77
2023/01/07 06:18:20;;;;;;;3.75;1.38;;;10.20;99.90;;;;;;6175882;28;20066;-78
2023/01/07 06:21:22;;;;;;;1.65;0.93;;;10.20;99.90;;;;;;6176437;28;20073;-78
2023/01/07 06:24:25;;;;;;;2.03;1.17;;;10.20;99.90;;;;;;6176764;28;20074;-78
2023/01/07 06:27:27;;;;;;;0.43;0.43;;;10.20;99.90;;;;;;6176513;28;20042;-78
2023/01/07 06:30:29;;;;;;;1.42;0.98;;;10.20;99.90;;;;;;6176116;28;20050;-78
2023/01/07 06:33:30;;;;;;;1.50;0.73;;;10.20;99.90;;;;;;6177355;28;20055;-78
2023/01/07 06:36:32;;;;;;;1.65;0.80;;;10.20;99.90;;;;;;6176462;28;20046;-78
2023/01/07 06:39:35;;;;;;;4.68;0.82;;;10.30;99.90;;;;;;6176933;28;20054;-78
2023/01/07 06:42:37;;;;;;;1.85;1.30;;;10.30;99.90;;;;;;6177208;28;20055;-78
2023/01/07 06:45:38;;;;;;;1.10;1.00;;;10.30;99.90;;;;;;6177436;28;20416;-78
2023/01/07 06:48:40;;;;;;;1.80;0.80;;;10.30;99.90;;;;;;6176895;28;20051;-78
2023/01/07 06:51:42;;;;;;;1.00;0.50;;;10.30;99.90;;;;;;6177976;28;20474;-78
2023/01/07 06:54:45;;;;;;;1.33;1.05;;;10.40;99.90;;;;;;6181651;28;20058;-78
2023/01/07 06:57:46;;;;;;;1.52;1.42;;;10.30;99.90;;;;;;6182302;28;20688;-78
2023/01/07 07:00:48;;;;;;;0.85;0.85;;;10.30;99.90;;;;;;6182244;28;20401;-78
2023/01/07 07:03:50;;;;;;;2.22;2.03;;;10.30;99.90;;;;;;6181488;28;20436;-78
2023/01/07 07:06:51;;;;;;;3.85;2.10;;;10.30;99.90;;;;;;6177544;28;20054;-78
2023/01/07 07:09:54;;;;;;;4.32;3.92;;;10.30;99.90;;;;;;6177424;28;20054;-77
2023/01/07 07:12:56;;;;;;;3.85;3.55;;;10.30;99.90;;;;;;6177594;28;20051;-78
2023/01/07 07:15:58;;;;;;;4.60;3.45;;;10.30;99.90;;;;;;6177975;28;20057;-77
2023/01/07 07:18:59;;;;;;;1.48;1.35;;;10.30;99.90;;;;;;6177605;28;20421;-78
2023/01/07 07:22:01;;;;;;;1.80;1.65;;;10.30;99.90;;;;;;6177106;28;20054;-77
2023/01/07 07:25:05;;;;;;;1.50;1.40;;;10.30;99.90;;;;;;6176974;28;20051;-78
2023/01/07 07:28:07;;;;;;;2.47;1.45;;;10.30;99.90;;;;;;6176010;28;20170;-78
2023/01/07 07:31:09;;;;;;;4.15;2.33;;;10.20;99.90;;;;;;6176965;28;20046;-78
2023/01/07 07:34:10;;;;;;;4.88;1.70;;;10.20;99.90;;;;;;6178090;28;20129;-78
2023/01/07 07:37:12;;;;;;;1.52;1.42;;;10.20;99.90;;;;;;6177511;28;20416;-78
2023/01/07 07:40:15;;;;;;;2.78;1.48;;;10.20;99.90;;;;;;6199641;28;20046;-78
2023/01/07 07:43:17;;;;;;;2.70;1.67;;;10.20;99.90;;;;;;6201353;28;20042;-78
2023/01/07 07:46:18;;;;;;;2.90;1.02;;;10.20;99.90;;;;;;6201598;28;20058;-79
2023/01/07 07:49:20;;;;;;;3.40;0.90;;;10.10;99.90;;;;;;6201326;28;20058;-78
2023/01/07 07:52:22;;;;;;;1.65;1.02;;;10.10;99.90;;;;;;6201489;28;20042;-79
2023/01/07 07:55:25;;;;;;;3.53;1.15;;;10.10;99.90;;;;;;6201317;28;20042;-79
2023/01/07 07:58:26;;;;;;;1.25;0.88;;;10.10;99.90;;;;;;6204818;28;20046;-77
2023/01/07 08:01:28;;;;;;;0.55;0.55;;;10.10;99.90;;;;;;6203978;28;20047;-78
2023/01/07 08:04:32;;;;;;;0.70;0.65;;;10.20;99.90;;;;;;6201619;28;20050;-78
2023/01/07 08:07:34;;;;;;;1.00;0.70;;;10.20;99.90;;;;;;6202331;28;20042;-78
2023/01/07 08:10:38;;;;;;;0.90;0.70;;;10.20;99.90;;;;;;6199065;28;20046;-77
2023/01/07 08:13:39;;;;;;;1.10;1.05;;;10.20;99.90;;;;;;6178440;28;20051;-77
2023/01/07 08:16:41;;;;;;;0.65;0.38;;;10.20;99.90;;;;;;6177973;28;20398;-78
2023/01/07 08:19:43;;;;;;;3.90;0.88;;;10.20;99.90;;;;;;6178262;28;20043;-78
2023/01/07 08:22:44;;;;;;;3.55;1.15;;;10.20;99.90;;;;;;6178026;28;20051;-77
2023/01/07 08:25:48;;;;;;;1.27;0.80;;;10.20;99.90;;;;;;6178979;28;20047;-77
2023/01/07 08:28:49;;;;;;;2.28;0.60;;;10.20;99.90;;;;;;6176349;28;20420;-77
2023/01/07 08:31:51;;;;;;;0.50;0.50;;;10.30;99.90;;;;;;6176998;28;20539;-77
2023/01/07 08:34:53;;;;;;;2.20;0.77;;;10.30;99.90;;;;;;6176333;28;20042;-78
2023/01/07 08:38:01;;;;;;;1.17;0.80;;;10.30;99.90;;;;;;6176655;28;20066;-78
2023/01/07 08:41:04;;;;;;;2.95;0.95;;;10.30;99.90;;;;;;6176077;28;20046;-78
2023/01/07 08:44:06;;;;;;;2.55;1.00;;;10.30;99.90;;;;;;6180007;28;20046;-78
2023/01/07 08:47:08;;;;;;;2.85;1.23;;;10.30;99.90;;;;;;6179958;28;20050;-78
2023/01/07 08:50:10;;;;;;;1.83;1.42;;;10.40;99.90;;;;;;6181982;28;20051;-78
2023/01/07 08:53:12;;;;;;;1.45;1.23;;;10.40;99.90;;;;;;6136463;28;20061;-77
2023/01/07 08:56:15;;;;;;;8.82;1.33;;;10.50;99.90;;;;;;6175073;28;20046;-77
2023/01/07 08:59:16;;;;;;;3.58;1.83;;;10.60;99.90;;;;;;6196812;28;20051;-78
2023/01/07 09:02:19;;;;;;;1.92;1.13;;;10.70;99.90;;;;;;6184289;28;20078;-79
2023/01/07 09:05:21;;;;;;;2.42;0.90;;;10.80;99.90;;;;;;6180858;28;20046;-80
2023/01/07 09:08:23;;;;;;;0.45;0.45;;;10.80;99.90;;;;;;6198931;28;20046;-78
2023/01/07 09:11:26;;;;;;;1.17;0.80;;;10.80;99.90;;;;;;6191793;28;20057;-77
2023/01/07 09:14:27;;;;;;;0.93;0.80;;;10.80;99.90;;;;;;6183709;28;20069;-78
2023/01/07 09:17:29;;;;;;;3.28;0.82;;;10.80;99.90;;;;;;6188350;28;20121;-78
2023/01/07 09:20:31;;;;;;;0.85;0.47;;;10.80;99.90;;;;;;6200861;28;20530;-78
2023/01/07 09:23:32;;;;;;;1.27;1.17;;;10.80;99.90;;;;;;6179718;28;20039;-76
2023/01/07 09:26:35;;;;;;;0.15;0.10;;;10.80;99.90;;;;;;6187203;28;20417;-79
2023/01/07 09:29:37;;;;;;;0.65;0.40;;;10.80;99.90;;;;;;6199709;28;20053;-79
2023/01/07 09:32:39;;;;;;;1.17;1.08;;;10.90;99.90;;;;;;6203400;28;20460;-77
2023/01/07 09:35:40;;;;;;;0.40;0.40;;;10.90;99.90;;;;;;6205136;28;20435;-79
2023/01/07 09:38:42;;;;;;;2.78;0.50;;;10.90;99.90;;;;;;6228506;28;20036;-78
2023/01/07 09:41:54;;;;;;;0.63;0.47;;;11.00;99.90;;;;;;6205975;28;20046;-79
2023/01/07 09:45:08;;;;;;;1.08;0.45;;;11.00;99.90;;;;;;6175596;28;20050;-78
2023/01/07 09:48:18;;;;;;;0.60;0.50;;;11.00;99.90;;;;;;6172938;28;20133;-78
2023/01/07 09:51:25;;;;;;;0.45;0.45;;;11.10;99.90;;;;;;6173858;28;20053;-79
2023/01/07 09:54:32;;;;;;;0.50;0.50;;;11.20;99.90;;;;;;6174006;28;20421;-78
2023/01/07 09:57:35;;;;;;;0.52;0.50;;;11.30;99.90;;;;;;6189218;28;20054;-79
2023/01/07 10:00:38;;;;;;;0.70;0.60;;;11.30;99.90;;;;;;6197302;28;20057;-77
2023/01/07 10:03:51;;;;;;;0.25;0.20;;;11.50;99.90;;;;;;6197338;28;20075;-77
2023/01/07 10:07:02;;;;;;;1.58;0.70;;;11.60;99.90;;;;;;6185778;28;20073;-78
2023/01/07 10:10:13;;;;;;;0.65;0.50;;;11.70;99.90;;;;;;6183385;28;20054;-79
2023/01/07 10:13:32;;;;;;;0.77;0.50;;;11.80;99.90;;;;;;6197012;28;20057;-78
2023/01/07 10:16:41;;;;;;;0.40;0.40;;;11.80;99.90;;;;;;6199082;28;20054;-78
2023/01/07 10:19:50;;;;;;;0.52;0.52;;;12.00;99.90;;;;;;6196616;28;20046;-79
2023/01/07 10:22:57;;;;;;;1.70;0.98;;;12.10;99.90;;;;;;6196890;28;20061;-78
2023/01/07 10:26:01;;;;;;;2.05;1.17;;;12.30;99.90;;;;;;6197779;28;20070;-79
2023/01/07 10:29:10;;;;;;;1.48;1.20;;;12.50;99.90;;;;;;6182837;28;20388;-78
2023/01/07 10:32:20;;;;;;;1.95;0.70;;;12.70;99.90;;;;;;6197384;28;20508;-78
2023/01/07 10:35:29;;;;;;;0.70;0.70;;;12.60;99.90;;;;;;6196608;28;20049;-79
2023/01/07 10:38:35;;;;;;;1.90;0.70;;;12.70;99.90;;;;;;6196289;28;20526;-78
2023/01/07 10:41:43;;;;;;;0.80;0.68;;;12.80;99.90;;;;;;6195814;28;20049;-79
2023/01/07 10:44:55;;;;;;;;;;;12.80;99.90;;;;;;6197021;28;20054;-78
2023/01/07 10:48:13;;;;;;;1.60;1.10;;;12.80;99.90;;;;;;6196086;28;19937;-78
2023/01/07 10:51:40;;;;;;;1.20;0.93;;;12.80;99.90;;;;;;6196233;28;20038;-78
2023/01/07 10:55:13;;;;;;;1.10;1.00;;;12.80;99.90;;;;;;6196416;28;20155;-78
2023/01/07 10:58:14;;;;;;;1.30;1.02;;;12.90;99.90;;;;;;6179636;28;20061;-78
2023/01/07 11:01:23;;;;;;;1.48;1.38;;;12.90;99.90;;;;;;6172008;28;20050;-78
2023/01/07 11:04:26;;;;;;;1.10;0.93;;;12.90;99.90;;;;;;6172115;28;20050;-78
2023/01/07 11:07:42;;;;;;;1.17;1.08;;;13.00;99.90;;;;;;6176087;28;20043;-78
2023/01/07 11:10:43;;;;;;;2.47;1.00;;;13.20;99.90;;;;;;6195856;28;20046;-78
2023/01/07 11:13:54;;;;;;;1.50;0.73;;;13.40;99.90;;;;;;6196933;28;20058;-78
2023/01/07 11:17:08;;;;;;;2.83;1.15;;;13.40;99.90;;;;;;6192471;28;20493;-77
2023/01/07 11:20:11;;;;;;;0.68;0.68;;;13.60;99.90;;;;;;6177865;28;20046;-77
2023/01/07 11:23:32;;;;;;;0.80;0.80;;;13.70;99.90;;;;;;6181641;28;20043;-77
2023/01/07 11:26:34;;;;;;;3.05;1.17;;;13.90;99.90;;;;;;6182395;28;20042;-77
2023/01/07 11:29:42;;;;;;;3.60;2.38;;;14.00;99.90;;;;;;6194442;28;20052;-77
2023/01/07 11:32:55;;;;;;;1.65;1.20;;;14.10;99.90;;;;;;6195933;28;20050;-78
2023/01/07 11:35:57;;;;;;;4.18;2.47;;;14.20;99.90;;;;;;6196028;28;20048;-78
2023/01/07 11:39:09;;;;;;;1.00;0.70;;;14.40;99.60;;;;;;6198183;28;20042;-78
2023/01/07 11:45:47;;;;;;;1.23;1.05;;;14.80;99.10;;;;;;6200852;28;20057;-77
2023/01/07 11:48:53;;;;;;;1.42;1.10;;;15.10;98.80;;;;;;6196525;28;20078;-77
2023/01/07 11:51:55;;;;;;;1.40;1.05;;;15.40;97.90;;;;;;6200159;28;20050;-77
2023/01/07 11:54:57;;;;;;;2.28;1.13;;;15.50;97.50;;;;;;6199754;28;20386;-76
2023/01/07 11:57:59;;;;;;;1.58;1.08;;;15.60;97.30;;;;;;6190876;28;20054;-77
2023/01/07 12:01:18;;;;;;;2.45;1.27;;;16.10;97.30;;;;;;6199400;28;20042;-77
2023/01/07 12:04:24;;;;;;;1.38;1.27;;;16.90;95.80;;;;;;6199367;28;20057;-77
2023/01/07 12:07:26;;;;;;;2.65;1.92;;;17.40;95.20;;;;;;6192279;28;20053;-78
2023/01/07 12:10:33;;;;;;;2.85;2.40;;;18.00;94.50;;;;;;6178439;28;20058;-77
2023/01/07 12:13:36;;;;;;;39.63;34.47;;;18.40;93.60;;;;;;6176037;28;20415;-79
2023/01/07 12:16:38;;;;;;;19.80;17.83;;;18.70;92.60;;;;;;6175578;28;20058;-78
2023/01/07 12:20:04;;;;;;;2.63;2.35;;;19.00;92.00;;;;;;6176178;28;20508;-77
2023/01/07 12:23:21;;;;;;;5.90;5.35;;;19.00;90.50;;;;;;6175418;28;20038;-78
2023/01/07 12:26:27;;;;;;;7.75;6.68;;;19.20;90.40;;;;;;6186853;28;20046;-78
2023/01/07 12:29:39;;;;;;;2.75;2.28;;;19.80;89.60;;;;;;6196958;28;20054;-77
2023/01/07 12:32:50;;;;;;;1.65;1.27;;;19.90;87.70;;;;;;6200279;28;20046;-76
2023/01/07 12:35:57;;;;;;;3.28;1.80;;;19.80;85.60;;;;;;6198626;28;20081;-77
2023/01/07 12:39:02;;;;;;;6.85;4.57;;;19.70;85.10;;;;;;6198642;28;20050;-78
2023/01/07 12:42:09;;;;;;;2.22;2.00;;;19.90;84.40;;;;;;6199261;28;20104;-78
2023/01/07 12:45:18;;;;;;;2.95;1.58;;;19.90;82.90;;;;;;6198291;28;20046;-78
2023/01/07 12:48:25;;;;;;;1.80;1.50;;;20.10;82.80;;;;;;6197743;28;20062;-77
2023/01/07 12:51:32;;;;;;;5.00;3.83;;;20.10;81.80;;;;;;6197029;28;20566;-77
2023/01/07 12:54:44;;;;;;;2.28;1.83;;;20.00;80.70;;;;;;6198579;28;20413;-77
2023/01/07 12:57:53;;;;;;;4.28;2.35;;;20.30;80.10;;;;;;6189653;28;20050;-77
2023/01/07 13:00:59;;;;;;;2.33;2.13;;;20.40;79.40;;;;;;6198214;28;20062;-78
2023/01/07 13:04:08;;;;;;;2.35;1.50;;;20.40;79.10;;;;;;6198411;28;20049;-78
2023/01/07 13:07:16;;;;;;;1.95;1.35;;;20.30;77.60;;;;;;6197378;28;20038;-78
2023/01/07 13:10:24;;;;;;;2.33;1.70;;;20.00;78.20;;;;;;6183818;28;20492;-78
2023/01/07 13:13:30;;;;;;;1.90;1.63;;;20.10;77.90;;;;;;6174119;28;20051;-78
2023/01/07 13:16:32;;;;;;;4.15;1.85;;;19.90;77.90;;;;;;6173751;28;20065;-77
2023/01/07 13:19:34;;;;;;;2.42;2.20;;;20.20;77.20;;;;;;6173326;28;20150;-77
2023/01/07 13:22:41;;;;;;;2.47;1.88;;;20.30;75.70;;;;;;6174002;28;20054;-78
2023/01/07 13:25:54;;;;;;;2.58;1.50;;;20.00;75.80;;;;;;6186126;28;20050;-77
2023/01/07 13:29:25;;;;;;;1.58;1.48;;;19.70;76.20;;;;;;6191949;28;20057;-78
2023/01/07 13:32:59;;;;;;;1.95;1.63;;;19.40;76.40;;;;;;6200680;28;20050;-78
2023/01/07 13:36:13;;;;;;;2.15;1.73;;;19.20;77.10;;;;;;6198971;28;20061;-78
2023/01/07 13:39:40;;;;;;;2.38;2.17;;;19.10;77.50;;;;;;6199346;28;20049;-78
2023/01/07 13:42:47;;;;;;;2.33;2.13;;;18.80;77.80;;;;;;6198053;28;20057;-78
2023/01/07 13:45:51;;;;;;;;;;;18.60;78.90;;;;;;6198196;28;20054;-78
2023/01/07 13:48:54;;;;;;;2.55;2.30;;;18.70;78.00;;;;;;6198309;28;19928;-79
2023/01/07 13:52:11;;;;;;;3.50;2.13;;;18.60;77.90;;;;;;6197156;28;20050;-76
2023/01/07 13:55:35;;;;;;;3.60;1.80;;;18.40;77.90;;;;;;6193649;28;20047;-77
2023/01/07 13:58:44;;;;;;;2.47;2.10;;;18.10;78.60;;;;;;6180046;28;20055;-78
2023/01/07 14:02:16;;;;;;;2.13;1.70;;;18.10;79.40;;;;;;6172699;28;20053;-77
2023/01/07 14:05:24;;;;;;;2.30;1.67;;;18.00;79.30;;;;;;6172489;28;20604;-77
2023/01/07 14:08:28;;;;;;;3.70;2.38;;;17.70;79.60;;;;;;6172703;28;20047;-78
2023/01/07 14:11:51;;;;;;;3.13;2.35;;;17.80;79.70;;;;;;6178604;28;20039;-77
2023/01/07 14:15:05;;;;;;;3.92;3.05;;;17.90;79.90;;;;;;6173295;28;20054;-77
2023/01/07 14:18:46;;;;;;;17.10;3.45;;;18.30;79.20;;;;;;6172781;28;20055;-77
2023/01/07 14:22:09;;;;;;;2.17;1.80;;;18.40;78.70;;;;;;6155729;28;20059;-77
2023/01/07 14:25:42;;;;;;;2.53;2.33;;;18.60;78.10;;;;;;6177842;28;20057;-78
2023/01/07 14:29:05;;;;;;;2.72;1.67;;;18.60;77.40;;;;;;6188328;28;20069;-77
2023/01/07 14:32:27;;;;;;;2.42;2.08;;;18.50;77.20;;;;;;6198351;28;20176;-76
2023/01/07 14:35:33;;;;;;;2.90;2.25;;;17.80;77.40;;;;;;6196972;28;20046;-77
2023/01/07 14:38:58;;;;;;;2.75;2.45;;;17.20;79.00;;;;;;6196062;28;20057;-77
2023/01/07 14:42:26;;;;;;;2.38;2.13;;;16.70;80.20;;;;;;6197473;28;20047;-78
2023/01/07 14:45:54;;;;;;;1.73;1.63;;;16.70;81.30;;;;;;6198803;28;20046;-78
2023/01/07 14:49:17;;;;;;;2.97;2.22;;;17.00;80.50;;;;;;6198747;28;20165;-78
2023/01/07 14:53:04;;;;;;;3.28;2.30;;;16.80;80.50;;;;;;6196487;28;20418;-77
2023/01/07 14:56:18;;;;;;;5.07;1.90;;;16.40;81.30;;;;;;6196252;28;20088;-77
2023/01/07 14:59:36;;;;;;;2.47;2.28;;;16.30;82.10;;;;;;6196946;28;20058;-79
2023/01/07 15:03:22;;;;;;;4.07;1.98;;;16.30;82.30;;;;;;6198091;28;20126;-78
2023/01/07 15:06:26;;;;;;;4.13;2.10;;;15.80;82.60;;;;;;6198179;28;20050;-78
2023/01/07 15:16:21;;;;;;;2.47;2.10;;;14.80;85.10;;;;;;6198723;28;20042;-78
2023/01/07 15:19:25;;;;;;;4.45;2.08;;;14.50;85.60;;;;;;6201286;28;20538;-78
2023/01/07 15:22:46;;;;;;;2.33;1.92;;;14.30;86.30;;;;;;6202785;28;20046;-78
2023/01/07 15:25:55;;;;;;;4.15;2.17;;;14.10;86.90;;;;;;6201958;28;20061;-78
2023/01/07 15:29:05;;;;;;;2.35;2.05;;;13.90;87.50;;;;;;6194755;28;20061;-78
2023/01/07 15:32:16;;;;;;;2.95;2.65;;;13.60;88.20;;;;;;6188544;28;20513;-78
2023/01/07 15:35:21;;;;;;;3.13;2.33;;;13.50;88.90;;;;;;6177967;28;20428;-79
2023/01/07 15:38:30;;;;;;;2.45;2.25;;;13.20;89.50;;;;;;6177946;28;20074;-79
2023/01/07 15:41:33;;;;;;;3.55;2.70;;;13.10;90.10;;;;;;6177858;28;20043;-79
2023/01/07 15:44:38;;;;;;;4.13;2.72;;;13.00;90.30;;;;;;6177634;28;20046;-78
2023/01/07 15:47:42;;;;;;;4.80;3.63;;;12.80;90.60;;;;;;6175907;28;20054;-79
2023/01/07 15:50:46;;;;;;;2.50;2.00;;;12.70;90.80;;;;;;6176474;28;20050;-77
2023/01/07 15:53:54;;;;;;;7.05;2.92;;;12.50;91.10;;;;;;6177349;28;20057;-78
2023/01/07 15:57:01;;;;;;;4.53;3.15;;;12.40;91.50;;;;;;6192264;28;20050;-77
2023/01/07 16:00:07;;;;;;;3.65;2.90;;;12.30;91.60;;;;;;6176145;28;20061;-78
2023/01/07 16:03:15;;;;;;;5.22;2.63;;;12.20;91.80;;;;;;6177957;28;20039;-77
2023/01/07 16:06:32;;;;;;;5.43;2.50;;;12.10;92.10;;;;;;6182424;28;20054;-78
2023/01/07 16:09:34;;;;;;;18.45;6.25;;;11.90;92.40;;;;;;6177802;28;20042;-78
2023/01/07 16:12:37;;;;;;;3.03;2.22;;;11.70;92.80;;;;;;6184950;28;20054;-77
2023/01/07 16:15:40;;;;;;;2.45;2.15;;;11.60;92.90;;;;;;6198286;28;20416;-78
2023/01/07 16:18:54;;;;;;;2.40;2.20;;;11.40;93.20;;;;;;6177647;28;20058;-78
2023/01/07 16:21:59;;;;;;;4.30;3.20;;;11.30;93.80;;;;;;6177441;28;20050;-79
2023/01/07 16:25:10;;;;;;;4.60;2.78;;;11.10;94.00;;;;;;6179973;28;20046;-78